createdAt,value
2024-03-12T00:01:27.464Z,2.33
2024-03-12T00:03:55.930Z,2.45
2024-03-12T00:06:23.506Z,2.70
2024-03-12T00:08:50.263Z,2.28
2024-03-12T00:11:17.266Z,2.13
2024-03-12T00:13:44.091Z,2.33
2024-03-12T00:16:10.972Z,2.78
2024-03-12T00:18:37.805Z,2.10
2024-03-12T00:21:04.692Z,2.20
2024-03-12T00:23:31.529Z,2.10
2024-03-12T00:25:58.231Z,2.20
2024-03-12T00:28:24.982Z,1.98
2024-03-12T00:30:51.808Z,2.30
2024-03-12T00:33:19.514Z,2.78
2024-03-12T00:35:47.501Z,2.53
2024-03-12T00:38:14.290Z,2.30
2024-03-12T00:40:43.717Z,2.28
2024-03-12T00:43:10.607Z,2.50
2024-03-12T00:45:38.421Z,2.58
2024-03-12T00:48:07.375Z,2.38
2024-03-12T00:50:34.532Z,2.42
2024-03-12T00:53:03.469Z,2.30
2024-03-12T00:55:30.844Z,2.20
2024-03-12T00:58:01.762Z,2.38
2024-03-12T01:00:34.917Z,2.25
2024-03-12T01:03:02.378Z,2.40
2024-03-12T01:05:33.207Z,2.13
2024-03-12T01:08:01.394Z,2.03
2024-03-12T01:10:30.563Z,1.67
2024-03-12T01:12:59.900Z,2.20
2024-03-12T01:15:26.888Z,2.05
2024-03-12T01:17:55.161Z,2.05
2024-03-12T01:20:23.207Z,2.00
2024-03-12T01:22:53.117Z,1.92
2024-03-12T01:25:22.350Z,2.10
2024-03-12T01:27:49.857Z,2.03
2024-03-12T01:30:17.789Z,1.90
2024-03-12T01:32:46.538Z,1.77
2024-03-12T01:35:14.439Z,1.95
2024-03-12T01:37:46.800Z,2.10
2024-03-12T01:40:23.087Z,2.00
2024-03-12T01:42:51.737Z,2.15
2024-03-12T01:45:23.922Z,2.03
2024-03-12T01:47:56.203Z,1.90
2024-03-12T01:50:25.927Z,2.00
2024-03-12T01:53:00.761Z,2.10
2024-03-12T01:55:27.862Z,2.22
2024-03-12T01:57:55.645Z,1.85
2024-03-12T02:00:22.774Z,1.52
2024-03-12T02:02:53.696Z,2.58
2024-03-12T02:05:20.948Z,1.65
2024-03-12T02:07:50.048Z,2.03
2024-03-12T02:10:17.955Z,1.92
2024-03-12T02:12:47.780Z,1.80
2024-03-12T02:15:21.914Z,1.80
2024-03-12T02:17:52.774Z,1.85
2024-03-12T02:20:19.890Z,2.10
2024-03-12T02:22:47.068Z,1.50
2024-03-12T02:25:14.271Z,1.98
2024-03-12T02:27:41.423Z,1.75
2024-03-12T02:30:09.803Z,2.00
2024-03-12T02:32:37.752Z,1.85
2024-03-12T02:35:05.706Z,2.15
2024-03-12T02:37:32.419Z,2.40
2024-03-12T02:39:59.156Z,1.98
2024-03-12T02:42:26.429Z,1.92
2024-03-12T02:44:53.189Z,2.10
2024-03-12T02:47:21.884Z,2.33
2024-03-12T02:49:49.516Z,2.38
2024-03-12T02:52:16.265Z,2.13
2024-03-12T02:54:43.231Z,2.30
2024-03-12T02:57:12.693Z,2.35
2024-03-12T02:59:39.582Z,2.43
2024-03-12T03:02:06.571Z,2.60
2024-03-12T03:04:37.491Z,2.42
2024-03-12T03:07:08.625Z,2.40
2024-03-12T03:09:35.584Z,2.55
2024-03-12T03:12:02.355Z,2.53
2024-03-12T03:14:29.105Z,2.13
2024-03-12T03:16:56.485Z,2.65
2024-03-12T03:19:24.216Z,2.95
2024-03-12T03:21:51.282Z,2.65
2024-03-12T03:24:18.113Z,2.50
2024-03-12T03:26:44.910Z,2.67
2024-03-12T03:29:12.567Z,2.88
2024-03-12T03:31:42.619Z,3.17
2024-03-12T03:34:12.159Z,2.60
2024-03-12T03:36:40.920Z,2.55
2024-03-12T03:39:09.710Z,2.13
2024-03-12T03:41:36.444Z,2.65
2024-03-12T03:44:03.512Z,2.88
2024-03-12T03:46:30.670Z,2.60
2024-03-12T03:48:58.901Z,2.50
2024-03-12T03:51:27.135Z,2.55
2024-03-12T03:53:54.114Z,2.75
2024-03-12T03:56:21.136Z,2.47
2024-03-12T03:58:48.525Z,2.67
2024-03-12T04:01:15.382Z,2.80
2024-03-12T04:03:42.624Z,2.53
2024-03-12T04:06:09.492Z,2.85
2024-03-12T04:08:36.700Z,2.40
2024-03-12T04:11:04.569Z,2.92
2024-03-12T04:13:33.511Z,2.42
2024-03-12T04:16:00.727Z,2.83
2024-03-12T04:18:29.830Z,2.58
2024-03-12T04:20:57.218Z,2.40
2024-03-12T04:23:24.202Z,2.55
2024-03-12T04:25:51.021Z,2.40
2024-03-12T04:28:20.500Z,2.78
2024-03-12T04:30:49.833Z,2.55
2024-03-12T04:33:18.722Z,2.80
2024-03-12T04:35:46.109Z,2.28
2024-03-12T04:38:17.230Z,2.17
2024-03-12T04:40:44.304Z,2.03
2024-03-12T04:43:11.450Z,2.10
2024-03-12T04:45:38.182Z,2.20
2024-03-12T04:48:05.158Z,2.65
2024-03-12T04:50:31.861Z,2.25
2024-03-12T04:52:58.516Z,2.05
2024-03-12T04:55:25.232Z,1.63
2024-03-12T04:57:52.034Z,1.63
2024-03-12T05:00:22.533Z,1.48
2024-03-12T05:02:53.155Z,2.00
2024-03-12T05:05:21.895Z,1.63
2024-03-12T05:07:49.250Z,2.00
2024-03-12T05:10:17.239Z,1.75
2024-03-12T05:12:44.822Z,1.83
2024-03-12T05:15:11.718Z,2.03
2024-03-12T05:17:41.936Z,1.85
2024-03-12T05:20:15.401Z,1.90
2024-03-12T05:22:42.700Z,2.35
2024-03-12T05:25:23.911Z,1.75
2024-03-12T05:27:51.691Z,1.90
2024-03-12T05:30:21.737Z,1.67
2024-03-12T05:32:50.070Z,1.90
2024-03-12T05:35:26.460Z,1.95
2024-03-12T05:38:03.690Z,2.35
2024-03-12T05:40:45.193Z,1.90
2024-03-12T05:43:30.685Z,2.35
2024-03-12T05:46:16.160Z,2.13
2024-03-12T05:48:43.460Z,2.13
2024-03-12T05:51:10.388Z,2.20
2024-03-12T05:53:40.110Z,1.83
2024-03-12T05:56:10.974Z,2.10
2024-03-12T05:58:38.973Z,2.33
2024-03-12T06:01:06.229Z,2.28
2024-03-12T06:03:33.549Z,1.90
2024-03-12T06:06:00.302Z,2.28
2024-03-12T06:08:27.110Z,2.17
2024-03-12T06:10:53.894Z,1.33
2024-03-12T06:13:24.130Z,1.50
2024-03-12T06:18:22.026Z,1.58
2024-03-12T06:20:49.212Z,1.92
2024-03-12T06:23:16.958Z,1.45
2024-03-12T06:25:43.784Z,1.30
2024-03-12T06:28:12.675Z,2.15
2024-03-12T06:30:40.025Z,1.50
2024-03-12T06:33:09.882Z,1.67
2024-03-12T06:35:37.026Z,1.40
2024-03-12T06:38:06.133Z,1.40
2024-03-12T06:40:33.722Z,1.20
2024-03-12T06:43:00.962Z,1.40
2024-03-12T06:45:30.541Z,1.63
2024-03-12T06:47:58.169Z,1.70
2024-03-12T06:50:27.809Z,1.92
2024-03-12T06:52:55.195Z,1.77
2024-03-12T06:55:25.503Z,2.10
2024-03-12T07:00:38.776Z,2.50
2024-03-12T07:03:06.508Z,2.10
2024-03-12T07:05:44.614Z,2.20
2024-03-12T07:08:11.639Z,2.53
2024-03-12T07:10:41.549Z,2.28
2024-03-12T07:13:08.986Z,2.78
2024-03-12T07:15:37.332Z,3.03
2024-03-12T07:18:04.956Z,2.90
2024-03-12T07:20:32.400Z,3.28
2024-03-12T07:22:59.820Z,2.80
2024-03-12T07:25:26.973Z,2.85
2024-03-12T07:27:54.467Z,3.03
2024-03-12T07:30:25.866Z,3.13
2024-03-12T07:32:54.011Z,2.80
2024-03-12T07:35:20.932Z,2.40
2024-03-12T07:37:47.646Z,2.88
2024-03-12T07:40:17.282Z,3.15
2024-03-12T07:42:45.895Z,2.80
2024-03-12T07:45:15.662Z,3.88
2024-03-12T07:47:42.544Z,4.38
2024-03-12T07:50:14.888Z,2.83
2024-03-12T07:52:41.557Z,3.28
2024-03-12T07:55:11.611Z,2.85
2024-03-12T07:57:39.134Z,3.05
2024-03-12T08:00:06.734Z,2.80
2024-03-12T08:02:33.445Z,3.05
2024-03-12T08:05:00.260Z,2.78
2024-03-12T08:07:27.011Z,3.00
2024-03-12T08:09:53.746Z,3.38
2024-03-12T08:12:20.772Z,3.22
2024-03-12T08:14:47.684Z,3.00
2024-03-12T08:17:14.490Z,3.50
2024-03-12T08:19:43.629Z,3.58
2024-03-12T08:22:10.756Z,3.63
2024-03-12T08:24:41.822Z,4.07
2024-03-12T08:27:08.567Z,3.58
2024-03-12T08:29:35.400Z,3.75
2024-03-12T08:32:02.283Z,3.85
2024-03-12T08:34:29.214Z,3.90
2024-03-12T08:36:57.248Z,3.83
2024-03-12T08:39:28.774Z,4.40
2024-03-12T08:41:56.390Z,4.03
2024-03-12T08:44:23.462Z,4.47
2024-03-12T08:46:51.410Z,4.72
2024-03-12T08:49:18.367Z,4.65
2024-03-12T08:51:46.257Z,4.22
2024-03-12T08:54:15.370Z,4.18
2024-03-12T08:56:44.042Z,4.75
2024-03-12T08:59:14.905Z,4.88
2024-03-12T09:01:41.960Z,4.03
2024-03-12T09:04:09.560Z,4.38
2024-03-12T09:06:36.563Z,4.78
2024-03-12T09:09:03.448Z,4.85
2024-03-12T09:11:30.248Z,4.90
2024-03-12T09:13:56.984Z,5.10
2024-03-12T09:16:23.783Z,4.65
2024-03-12T09:18:50.583Z,4.20
2024-03-12T09:21:19.700Z,4.40
2024-03-12T09:23:53.588Z,4.78
2024-03-12T09:26:28.965Z,4.68
2024-03-12T09:28:56.068Z,4.97
2024-03-12T09:31:23.103Z,4.95
2024-03-12T09:33:50.232Z,4.95
2024-03-12T09:36:17.047Z,4.97
2024-03-12T09:38:45.526Z,4.82
2024-03-12T09:41:14.271Z,4.78
2024-03-12T09:43:45.056Z,4.82
2024-03-12T09:46:17.505Z,4.95
2024-03-12T09:48:46.130Z,4.90
2024-03-12T09:51:13.452Z,5.03
2024-03-12T09:53:42.397Z,6.35
2024-03-12T09:56:11.549Z,5.72
2024-03-12T09:58:39.171Z,6.10
2024-03-12T10:01:07.328Z,5.53
2024-03-12T10:03:37.617Z,6.10
2024-03-12T10:06:05.033Z,6.10
2024-03-12T10:08:32.991Z,6.20
2024-03-12T10:11:03.851Z,5.90
2024-03-12T10:13:31.532Z,7.18
2024-03-12T10:16:04.698Z,6.57
2024-03-12T10:18:35.756Z,6.93
2024-03-12T10:21:03.212Z,6.90
2024-03-12T10:23:35.735Z,6.95
2024-03-12T10:26:11.005Z,6.47
2024-03-12T10:28:39.173Z,8.02
2024-03-12T10:31:12.542Z,8.38
2024-03-12T10:33:44.264Z,8.60
2024-03-12T10:36:12.204Z,8.00
2024-03-12T10:38:41.046Z,7.55
2024-03-12T10:41:16.644Z,7.80
2024-03-12T10:43:45.402Z,8.40
2024-03-12T10:46:12.419Z,6.65
2024-03-12T10:48:42.256Z,8.80
2024-03-12T10:51:14.742Z,7.85
2024-03-12T10:53:43.836Z,8.82
2024-03-12T10:56:15.179Z,9.40
2024-03-12T10:58:48.140Z,8.80
2024-03-12T11:01:17.705Z,9.40
2024-03-12T11:03:45.359Z,8.77
2024-03-12T11:06:14.880Z,9.05
2024-03-12T11:08:44.475Z,8.48
2024-03-12T11:11:11.427Z,8.77
2024-03-12T11:13:39.123Z,9.98
2024-03-12T11:16:19.133Z,8.80
2024-03-12T11:21:14.852Z,9.57
2024-03-12T11:23:42.010Z,9.27
2024-03-12T11:26:09.527Z,10.35
2024-03-12T11:28:58.453Z,9.07
2024-03-12T11:31:26.168Z,9.77
2024-03-12T11:33:53.921Z,9.27
2024-03-12T11:36:30.248Z,9.43
2024-03-12T11:39:12.664Z,9.77
2024-03-12T11:42:18.293Z,9.57
2024-03-12T11:44:56.053Z,9.85
2024-03-12T11:47:38.179Z,9.35
2024-03-12T11:50:26.124Z,10.43
2024-03-12T11:52:52.957Z,9.30
2024-03-12T11:55:58.782Z,8.77
2024-03-12T11:58:34.391Z,9.40
2024-03-12T12:01:02.516Z,8.38
2024-03-12T12:03:29.419Z,10.10
2024-03-12T12:05:56.529Z,10.23
2024-03-12T12:08:24.777Z,9.15
2024-03-12T12:11:00.989Z,10.32
2024-03-12T12:13:28.476Z,9.85
2024-03-12T12:16:02.455Z,10.07
2024-03-12T12:18:31.101Z,10.20
2024-03-12T12:21:01.467Z,10.93
2024-03-12T12:25:56.134Z,10.55
2024-03-12T12:28:27.005Z,10.60
2024-03-12T12:31:02.092Z,10.25
2024-03-12T12:33:34.544Z,10.85
2024-03-12T12:36:09.409Z,12.02
2024-03-12T12:38:37.769Z,11.48
2024-03-12T12:41:05.881Z,11.85
2024-03-12T12:43:37.575Z,12.35
2024-03-12T12:46:06.552Z,11.55
2024-03-12T12:48:36.549Z,11.20
2024-03-12T12:51:07.140Z,11.00
2024-03-12T12:53:33.894Z,10.45
2024-03-12T12:56:04.882Z,10.38
2024-03-12T12:58:35.179Z,11.23
2024-03-12T13:03:41.615Z,11.18
2024-03-12T13:06:24.316Z,10.98
2024-03-12T13:08:52.821Z,12.13
2024-03-12T13:11:22.564Z,11.65
2024-03-12T13:13:53.299Z,12.10
2024-03-12T13:16:24.197Z,11.40
2024-03-12T13:18:53.153Z,12.02
2024-03-12T13:21:22.682Z,12.55
2024-03-12T13:23:51.058Z,12.10
2024-03-12T13:26:19.319Z,12.00
2024-03-12T13:28:48.098Z,11.60
2024-03-12T13:31:16.380Z,10.80
2024-03-12T13:33:43.576Z,10.90
2024-03-12T13:36:11.143Z,10.85
2024-03-12T13:38:40.656Z,11.05
2024-03-12T13:41:08.463Z,11.10
2024-03-12T13:43:35.168Z,11.48
2024-03-12T13:46:01.972Z,11.45
2024-03-12T13:48:29.434Z,10.55
2024-03-12T13:51:05.189Z,9.68
2024-03-12T13:53:32.533Z,11.02
2024-03-12T13:56:00.629Z,10.38
2024-03-12T13:58:27.570Z,10.98
2024-03-12T14:00:58.068Z,10.00
2024-03-12T14:03:28.350Z,10.00
2024-03-12T14:05:56.269Z,8.63
2024-03-12T14:08:24.336Z,10.20
2024-03-12T14:10:52.869Z,9.05
2024-03-12T14:13:22.542Z,9.20
2024-03-12T14:15:49.537Z,9.25
2024-03-12T14:18:22.841Z,8.65
2024-03-12T14:20:52.730Z,8.25
2024-03-12T14:23:20.059Z,8.68
2024-03-12T14:25:46.897Z,8.85
2024-03-12T14:28:13.720Z,8.13
2024-03-12T14:30:40.493Z,8.40
2024-03-12T14:33:07.510Z,8.27
2024-03-12T14:35:34.205Z,8.32
2024-03-12T14:38:00.991Z,8.13
2024-03-12T14:40:27.880Z,7.85
2024-03-12T14:42:55.912Z,8.48
2024-03-12T14:45:25.701Z,8.02
2024-03-12T14:47:52.704Z,8.32
2024-03-12T14:50:19.562Z,6.82
2024-03-12T14:52:46.990Z,7.82
2024-03-12T14:55:14.309Z,7.63
2024-03-12T14:57:42.046Z,6.45
2024-03-12T15:00:10.831Z,6.57
2024-03-12T15:02:38.308Z,6.82
2024-03-12T15:05:12.105Z,6.00
2024-03-12T15:07:44.147Z,5.72
2024-03-12T15:10:11.949Z,5.82
2024-03-12T15:12:42.190Z,6.85
2024-03-12T15:17:41.529Z,5.60
2024-03-12T15:20:19.687Z,5.93
2024-03-12T15:22:47.197Z,5.43
2024-03-12T15:25:14.361Z,5.65
2024-03-12T15:27:43.086Z,5.20
2024-03-12T15:30:10.644Z,5.35
2024-03-12T15:32:39.298Z,5.10
2024-03-12T15:35:07.082Z,5.30
2024-03-12T15:37:33.948Z,3.75
2024-03-12T15:40:01.390Z,3.90
2024-03-12T15:42:29.336Z,4.68
2024-03-12T15:44:56.751Z,4.03
2024-03-12T15:47:23.914Z,3.97
2024-03-12T15:49:51.411Z,3.28
2024-03-12T15:52:18.686Z,3.30
2024-03-12T15:54:48.030Z,3.22
2024-03-12T15:57:17.963Z,4.28
2024-03-12T15:59:45.366Z,4.00
2024-03-12T16:02:13.758Z,3.65
2024-03-12T16:04:43.592Z,3.72
2024-03-12T16:07:10.411Z,4.68
2024-03-12T16:09:37.519Z,3.63
2024-03-12T16:12:06.424Z,4.35
2024-03-12T16:14:33.328Z,4.93
2024-03-12T16:17:00.035Z,5.20
2024-03-12T16:19:31.036Z,5.07
2024-03-12T16:21:58.497Z,5.57
2024-03-12T16:24:28.676Z,5.25
2024-03-12T16:26:57.416Z,5.05
2024-03-12T16:29:25.052Z,4.50
2024-03-12T16:31:52.099Z,5.05
2024-03-12T16:34:19.129Z,5.25
2024-03-12T16:36:46.056Z,5.70
2024-03-12T16:39:14.361Z,5.63
2024-03-12T16:41:41.967Z,4.68
2024-03-12T16:44:08.947Z,5.43
2024-03-12T16:46:35.646Z,5.65
2024-03-12T16:49:04.975Z,5.15
2024-03-12T16:51:35.064Z,5.50
2024-03-12T16:54:03.429Z,5.60
2024-03-12T16:56:33.555Z,5.97
2024-03-12T16:59:01.457Z,4.88
2024-03-12T17:01:28.982Z,6.07
2024-03-12T17:03:56.029Z,5.22
2024-03-12T17:06:23.459Z,5.65
2024-03-12T17:08:51.273Z,5.90
2024-03-12T17:11:18.224Z,5.35
2024-03-12T17:13:45.548Z,5.95
2024-03-12T17:16:14.107Z,4.78
2024-03-12T17:18:41.812Z,5.18
2024-03-12T17:21:10.933Z,5.18
2024-03-12T17:23:37.838Z,5.32
2024-03-12T17:26:05.441Z,4.93
2024-03-12T17:28:34.216Z,4.95
2024-03-12T17:31:01.347Z,5.30
2024-03-12T17:33:28.500Z,4.43
2024-03-12T17:35:56.168Z,4.97
2024-03-12T17:38:25.415Z,4.47
2024-03-12T17:40:59.229Z,5.18
2024-03-12T17:43:27.211Z,4.75
2024-03-12T17:45:54.746Z,4.88
2024-03-12T17:48:22.723Z,4.50
2024-03-12T17:50:51.174Z,4.35
2024-03-12T17:53:18.106Z,5.15
2024-03-12T17:55:47.961Z,5.68
2024-03-12T17:58:17.467Z,5.65
2024-03-12T18:00:45.244Z,5.75
2024-03-12T18:03:12.634Z,4.20
2024-03-12T18:05:39.435Z,4.50
2024-03-12T18:08:11.549Z,4.88
2024-03-12T18:10:38.568Z,4.38
2024-03-12T18:13:05.646Z,4.60
2024-03-12T18:15:32.500Z,4.72
2024-03-12T18:17:59.741Z,4.32
2024-03-12T18:20:31.216Z,4.70
2024-03-12T18:22:58.627Z,5.20
2024-03-12T18:25:25.707Z,4.85
2024-03-12T18:27:56.714Z,6.32
2024-03-12T18:30:23.810Z,5.82
2024-03-12T18:32:50.787Z,5.28
2024-03-12T18:35:19.784Z,5.15
2024-03-12T18:37:46.854Z,5.65
2024-03-12T18:40:14.717Z,4.63
2024-03-12T18:42:47.154Z,4.25
2024-03-12T18:45:17.124Z,3.63
2024-03-12T18:47:44.108Z,4.45
2024-03-12T18:50:13.094Z,4.28
2024-03-12T18:52:40.776Z,4.38
2024-03-12T18:55:09.108Z,4.38
2024-03-12T18:57:46.215Z,6.80
2024-03-12T19:00:15.752Z,9.68
2024-03-12T19:02:52.642Z,4.22
2024-03-12T19:05:23.834Z,4.20
2024-03-12T19:07:55.878Z,3.85
2024-03-12T19:10:24.964Z,3.80
2024-03-12T19:12:52.344Z,4.65
2024-03-12T19:15:22.799Z,5.60
2024-03-12T19:17:53.035Z,5.32
2024-03-12T19:20:20.595Z,4.30
2024-03-12T19:22:54.483Z,4.78
2024-03-12T19:25:22.480Z,4.20
2024-03-12T19:27:50.400Z,4.80
2024-03-12T19:30:25.153Z,4.05
2024-03-12T19:32:52.176Z,4.05
2024-03-12T19:35:19.456Z,4.75
2024-03-12T19:37:47.088Z,4.03
2024-03-12T19:40:17.358Z,4.65
2024-03-12T19:42:46.210Z,4.95
2024-03-12T19:45:16.437Z,5.55
2024-03-12T19:47:46.289Z,4.85
2024-03-12T19:50:16.084Z,4.32
2024-03-12T19:52:47.237Z,4.05
2024-03-12T19:55:19.943Z,4.15
2024-03-12T19:57:48.404Z,4.22
2024-03-12T20:00:19.804Z,4.88
2024-03-12T20:02:50.639Z,4.50
2024-03-12T20:05:20.551Z,4.68
2024-03-12T20:07:48.701Z,3.92
2024-03-12T20:10:17.272Z,4.47
2024-03-12T20:12:44.942Z,4.25
2024-03-12T20:15:13.109Z,4.63
2024-03-12T20:17:43.112Z,4.07
2024-03-12T20:20:13.970Z,4.40
2024-03-12T20:22:47.689Z,4.57
2024-03-12T20:25:18.233Z,4.25
2024-03-12T20:27:46.765Z,4.10
2024-03-12T20:30:15.703Z,4.43
2024-03-12T20:32:42.737Z,4.47
2024-03-12T20:35:10.824Z,5.15
2024-03-12T20:37:39.655Z,4.65
2024-03-12T20:40:13.046Z,4.88
2024-03-12T20:42:40.506Z,4.90
2024-03-12T20:45:11.142Z,4.40
2024-03-12T20:47:39.562Z,4.40
2024-03-12T20:50:09.155Z,3.80
2024-03-12T20:52:39.151Z,3.67
2024-03-12T20:55:07.594Z,3.83
2024-03-12T20:57:34.600Z,3.88
2024-03-12T21:00:01.881Z,3.83
2024-03-12T21:02:31.490Z,4.47
2024-03-12T21:04:59.731Z,4.47
2024-03-12T21:07:26.447Z,3.85
2024-03-12T21:09:53.382Z,4.35
2024-03-12T21:12:20.981Z,4.18
2024-03-12T21:14:47.862Z,3.35
2024-03-12T21:17:14.564Z,3.72
2024-03-12T21:19:41.331Z,4.63
2024-03-12T21:22:09.542Z,4.20
2024-03-12T21:24:37.631Z,4.35
2024-03-12T21:27:04.561Z,4.60
2024-03-12T21:29:31.274Z,3.95
2024-03-12T21:31:58.989Z,4.30
2024-03-12T21:34:26.367Z,4.30
2024-03-12T21:36:53.083Z,4.40
2024-03-12T21:39:23.206Z,4.15
2024-03-12T21:41:50.038Z,5.43
2024-03-12T21:44:20.060Z,4.75
2024-03-12T21:46:47.816Z,4.40
2024-03-12T21:49:14.612Z,4.55
2024-03-12T21:51:41.536Z,4.03
2024-03-12T21:54:08.225Z,3.85
2024-03-12T21:56:34.949Z,4.05
2024-03-12T21:59:01.674Z,3.90
2024-03-12T22:01:29.144Z,4.47
2024-03-12T22:03:56.453Z,3.72
2024-03-12T22:06:23.579Z,4.13
2024-03-12T22:08:55.516Z,3.35
2024-03-12T22:11:22.348Z,3.58
2024-03-12T22:13:49.184Z,3.80
2024-03-12T22:16:17.302Z,3.78
2024-03-12T22:18:44.941Z,3.35
2024-03-12T22:21:12.449Z,3.35
2024-03-12T22:23:44.164Z,3.40
2024-03-12T22:26:13.108Z,4.53
2024-03-12T22:28:39.835Z,3.13
2024-03-12T22:31:09.712Z,3.15
2024-03-12T22:33:39.338Z,2.97
2024-03-12T22:36:07.944Z,3.22
2024-03-12T22:38:36.406Z,2.47
2024-03-12T22:41:03.833Z,3.33
2024-03-12T22:43:35.987Z,2.47
2024-03-12T22:46:07.528Z,3.17
2024-03-12T22:48:35.149Z,2.88
2024-03-12T22:51:03.012Z,2.70
2024-03-12T22:53:32.776Z,2.42
2024-03-12T22:56:00.208Z,2.75
2024-03-12T22:58:29.988Z,2.55
2024-03-12T23:00:57.664Z,2.95
2024-03-12T23:03:29.004Z,2.10
2024-03-12T23:05:59.032Z,2.17
2024-03-12T23:08:29.929Z,2.53
2024-03-12T23:10:59.470Z,2.10
2024-03-12T23:13:26.960Z,2.77
2024-03-12T23:15:54.202Z,2.20
2024-03-12T23:18:25.677Z,3.28
2024-03-12T23:20:56.154Z,2.10
2024-03-12T23:23:24.399Z,2.50
2024-03-12T23:25:51.867Z,2.03
2024-03-12T23:28:21.118Z,2.22
2024-03-12T23:30:48.503Z,2.20
2024-03-12T23:33:15.552Z,2.13
2024-03-12T23:35:43.370Z,2.17
2024-03-12T23:38:12.383Z,1.95
2024-03-12T23:40:39.782Z,2.38
2024-03-12T23:43:06.708Z,2.08
2024-03-12T23:45:33.754Z,2.00
2024-03-12T23:48:03.484Z,1.88
2024-03-12T23:50:30.674Z,1.70
2024-03-12T23:52:57.608Z,1.67
2024-03-12T23:55:25.576Z,2.03
2024-03-12T23:57:54.370Z,1.88
